createdAt,value
2022-08-09T05:40:16.750Z,44
2022-08-09T05:45:55.863Z,38
2022-08-09T05:51:42.332Z,36.5
2022-08-09T05:56:54.844Z,36
2022-08-09T06:02:19.041Z,36
2022-08-09T06:08:05.034Z,36
2022-08-09T06:13:20.540Z,36
2022-08-09T06:18:49.834Z,36
2022-08-09T06:24:20.419Z,36
2022-08-09T06:30:04.479Z,36.5
2022-08-09T06:35:21.704Z,38
2022-08-09T06:40:54.885Z,39
2022-08-09T06:46:39.871Z,38.5
2022-08-09T06:51:53.528Z,38
2022-08-09T06:57:25.851Z,37.5
2022-08-09T07:02:55.317Z,37.5
2022-08-09T07:08:24.943Z,37.5
2022-08-09T07:14:05.482Z,38
2022-08-09T07:19:26.128Z,38
2022-08-09T07:24:56.689Z,37.5
2022-08-09T07:30:32.415Z,37
2022-08-09T07:35:58.172Z,37
2022-08-09T07:41:32.897Z,37
2022-08-09T07:46:59.073Z,37.5
2022-08-09T07:52:29.672Z,37
2022-08-09T07:58:00.406Z,37
2022-08-09T08:03:31.010Z,37
2022-08-09T08:09:05.357Z,36.5
2022-08-09T08:14:32.262Z,36.5
2022-08-09T08:20:02.861Z,36.5
2022-08-09T08:25:43.984Z,37.5
2022-08-09T08:31:13.716Z,37.5
2022-08-09T08:36:34.572Z,37.5
2022-08-09T08:42:05.453Z,37.5
2022-08-09T08:47:38.554Z,38.5
2022-08-09T08:53:06.659Z,38
2022-08-09T08:58:37.601Z,37.5
2022-08-09T09:04:08.209Z,37
2022-08-09T09:09:58.148Z,37
2022-08-09T09:15:09.902Z,36.5
2022-08-09T09:20:39.602Z,36.5
2022-08-09T09:26:12.132Z,36
2022-08-09T09:32:06.752Z,36
2022-08-09T09:37:13.061Z,36
2022-08-09T09:42:45.983Z,36
2022-08-09T09:48:12.844Z,36
2022-08-09T09:54:00.993Z,36
2022-08-09T09:59:16.126Z,36
2022-08-09T10:04:44.351Z,36
2022-08-09T10:10:14.967Z,36
2022-08-09T10:16:08.904Z,35.5
2022-08-09T10:21:16.171Z,35.5
2022-08-09T10:26:46.908Z,35.5
2022-08-09T10:32:38.759Z,35.5
2022-08-09T10:37:48.482Z,35.5
2022-08-09T10:43:18.642Z,35.5
2022-08-09T10:48:52.298Z,35.5
2022-08-09T10:54:20.536Z,35.5
2022-08-09T10:59:57.360Z,35.5
2022-08-09T11:05:25.488Z,35.5
2022-08-09T11:10:54.841Z,35.5
2022-08-09T11:16:35.137Z,35.5
2022-08-09T11:21:55.278Z,35.5
2022-08-09T11:27:52.798Z,35.5
2022-08-09T11:32:54.620Z,35.5
2022-08-09T11:38:28.509Z,35.5
2022-08-09T11:43:55.838Z,35.5
2022-08-09T11:49:28.325Z,35.5
2022-08-09T11:54:57.051Z,35.5
2022-08-09T12:00:28.080Z,35.5
2022-08-09T12:05:57.774Z,35.5
2022-08-09T12:11:28.724Z,35.5
2022-08-09T12:16:59.539Z,35.5
2022-08-09T12:22:30.573Z,35
2022-08-09T12:29:14.401Z,35
2022-08-09T12:33:51.083Z,31
2022-08-09T12:39:04.304Z,30.5
2022-08-09T12:44:37.483Z,30.5
2022-08-09T12:50:03.173Z,30.5
2022-08-09T12:56:15.442Z,30.5
2022-08-09T13:01:05.147Z,31
2022-08-09T13:06:35.938Z,33.5
2022-08-09T13:12:06.755Z,32
2022-08-09T13:18:03.779Z,32
2022-08-09T13:24:16.694Z,32.5
2022-08-09T13:28:39.599Z,32.5
2022-08-09T13:34:08.201Z,32.5
2022-08-09T13:41:55.683Z,32.5
2022-08-09T13:45:12.321Z,33
2022-08-09T13:50:39.969Z,32.5
2022-08-09T13:56:12.028Z,32.5
2022-08-09T14:02:01.269Z,32
2022-08-09T14:07:12.355Z,32.5
2022-08-09T14:12:42.445Z,32
2022-08-09T14:18:27.406Z,32
2022-08-09T14:23:53.602Z,32.5
2022-08-09T14:30:04.393Z,32
